Airfield :







YOU CAN JOIN US ON...

 
LOGIN :

Register | Disclaimer

   EN    FR    IT 

 









Legend :    VFR   Marginal VFR   IFR   Intensive IFR   Very Intensive IFR
Visi :
Ceiling :
>= 8 km
>= 3000ft
5 to 8 km
1000 to 3000 ft
1500m to 5 km
500 to 1000 ft
800 to 1500m
200 to 500 ft
< 800m
< 200 ft
Symbols :   Thunderstorms  Fog  Heavy snow  Heavy precipitations  Wind > 20 kt







- Airport Elevation : 193 ft
- IATA code : ZBF


CZBF - Bathurst

CURRENT METAR :
  • 222000Z AUTO 23014G25KT 9SM CLR 27/15 A2977 RMK SLP082 DENSITY ALT 1700FT

EXPIRED METARs :
  • 221900Z AUTO 24015G25KT 9SM CLR 28/16 A2978 RMK SLP087 DENSITY ALT 1800FT
  • 221800Z AUTO 23013G21KT 190V260 9SM FEW050 27/16 A2982 RMK SLP099 DENSITY ALT 1700FT
  • 221700Z AUTO 23019G27KT 9SM FEW065 27/16 A2986 RMK SLP113 DENSITY ALT 1600FT

TAF TAF CZBF
Valid from the 22 at 20:00 until the 23 at 03:00 UTC


221938Z 2220/2303 24015G25KT P6SM BKN220
FM230000 24015G25KT P6SM BKN050 RMK FCST BASED ON AUTO OBS. NXT FCST WILL BE ISSUED AT 230845Z
No reported NOTAMs for that airfield.



MET'MAP, your aeronautical weather chart ! - Copyright ORBIFLY December 2007 - Disclaimer

ORBIFLY MET'MAP TEAM :

Programming & Development : Alexandra Zaïnal
Concept & Development : Baudouin d'Aumeries
Co-Development & Prog : Marc-Olivier Méhu
Technical & hardware support : Manuel Goepfert

Contact : metmap@orbifly.com




SOURCES & CREDITS :

   NOAA